createdAt,value
2022-10-13T00:00:53.101Z,7.60
2022-10-13T00:03:20.469Z,6.07
2022-10-13T00:05:48.800Z,17.42
2022-10-13T00:08:19.461Z,8.57
2022-10-13T00:10:47.698Z,10.88
2022-10-13T00:13:15.554Z,6.65
2022-10-13T00:15:44.687Z,4.70
2022-10-13T00:18:12.186Z,3.90
2022-10-13T00:20:47.566Z,4.30
2022-10-13T00:23:15.375Z,4.70
2022-10-13T00:25:43.903Z,4.65
2022-10-13T00:28:14.151Z,4.80
2022-10-13T00:30:41.703Z,4.15
2022-10-13T00:33:09.706Z,3.47
2022-10-13T00:35:41.206Z,3.75
2022-10-13T00:38:08.514Z,3.72
2022-10-13T00:40:43.321Z,4.43
2022-10-13T00:43:21.169Z,3.90
2022-10-13T00:45:51.687Z,4.45
2022-10-13T00:48:23.474Z,4.40
2022-10-13T00:50:51.032Z,4.90
2022-10-13T00:53:19.417Z,4.57
2022-10-13T00:55:47.079Z,4.60
2022-10-13T00:58:16.724Z,4.60
2022-10-13T01:00:49.189Z,4.72
2022-10-13T01:03:16.484Z,4.07
2022-10-13T01:05:44.106Z,4.53
2022-10-13T01:08:12.351Z,4.78
2022-10-13T01:10:40.000Z,5.45
2022-10-13T01:13:07.311Z,5.70
2022-10-13T01:15:37.614Z,5.40
2022-10-13T01:18:23.132Z,5.93
2022-10-13T01:20:53.782Z,6.25
2022-10-13T01:23:23.771Z,6.57
2022-10-13T01:26:10.445Z,6.10
2022-10-13T01:28:46.666Z,5.80
2022-10-13T01:31:21.572Z,5.57
2022-10-13T01:33:51.794Z,6.40
2022-10-13T01:36:31.669Z,6.67
2022-10-13T01:39:08.068Z,6.50
2022-10-13T01:41:40.009Z,5.35
2022-10-13T01:44:13.123Z,6.05
2022-10-13T01:46:41.679Z,6.10
2022-10-13T01:49:12.659Z,5.82
2022-10-13T01:51:40.313Z,6.35
2022-10-13T01:54:07.758Z,6.70
2022-10-13T01:56:35.022Z,5.93
2022-10-13T01:59:05.893Z,6.22
2022-10-13T02:01:33.332Z,6.28
2022-10-13T02:04:19.316Z,5.35
2022-10-13T02:06:48.193Z,6.80
2022-10-13T02:09:21.853Z,6.68
2022-10-13T02:11:51.973Z,6.18
2022-10-13T02:14:22.827Z,5.90
2022-10-13T02:16:50.492Z,5.82
2022-10-13T02:19:18.622Z,6.47
2022-10-13T02:21:46.017Z,6.22
2022-10-13T02:24:13.952Z,6.38
2022-10-13T02:26:41.909Z,6.18
2022-10-13T02:29:10.387Z,6.45
2022-10-13T02:31:38.081Z,7.00
2022-10-13T02:34:05.960Z,6.68
2022-10-13T02:36:33.813Z,6.55
2022-10-13T02:39:01.084Z,7.40
2022-10-13T02:41:28.363Z,6.50
2022-10-13T02:43:55.626Z,5.68
2022-10-13T02:46:22.865Z,6.10
2022-10-13T02:48:50.182Z,5.57
2022-10-13T02:51:17.687Z,6.35
2022-10-13T02:53:44.934Z,10.95
2022-10-13T02:56:12.167Z,6.60
2022-10-13T02:58:39.396Z,6.38
2022-10-13T03:01:07.522Z,6.53
2022-10-13T03:03:34.852Z,6.90
2022-10-13T03:06:02.784Z,6.60
2022-10-13T03:08:32.557Z,7.15
2022-10-13T03:10:59.869Z,5.65
2022-10-13T03:13:27.570Z,7.32
2022-10-13T03:15:54.794Z,7.70
2022-10-13T03:18:22.600Z,8.52
2022-10-13T03:21:06.511Z,8.93
2022-10-13T03:23:33.948Z,8.43
2022-10-13T03:26:01.286Z,7.18
2022-10-13T03:28:28.839Z,7.03
2022-10-13T03:31:03.229Z,7.55
2022-10-13T03:33:30.503Z,7.82
2022-10-13T03:36:07.596Z,8.88
2022-10-13T03:38:35.462Z,8.65
2022-10-13T03:41:06.672Z,7.40
2022-10-13T03:43:33.926Z,6.60
2022-10-13T03:46:02.049Z,6.72
2022-10-13T03:48:30.710Z,6.57
2022-10-13T03:50:58.362Z,6.20
2022-10-13T03:53:26.052Z,6.10
2022-10-13T03:55:54.239Z,6.47
2022-10-13T03:58:21.940Z,5.93
2022-10-13T04:00:49.259Z,6.55
2022-10-13T04:03:16.966Z,6.55
2022-10-13T04:05:44.487Z,6.60
2022-10-13T04:08:12.500Z,6.68
2022-10-13T04:10:40.189Z,6.90
2022-10-13T04:13:07.501Z,6.85
2022-10-13T04:15:38.211Z,7.32
2022-10-13T04:18:06.443Z,7.40
2022-10-13T04:20:36.754Z,7.78
2022-10-13T04:23:04.234Z,7.38
2022-10-13T04:25:31.952Z,8.18
2022-10-13T04:27:59.448Z,8.18
2022-10-13T04:30:26.694Z,8.38
2022-10-13T04:32:53.951Z,8.25
2022-10-13T04:35:21.222Z,8.10
2022-10-13T04:37:48.710Z,8.23
2022-10-13T04:40:15.999Z,8.75
2022-10-13T04:42:43.216Z,8.00
2022-10-13T04:45:10.795Z,8.18
2022-10-13T04:47:39.711Z,8.38
2022-10-13T04:50:07.181Z,8.43
2022-10-13T04:52:35.244Z,8.15
2022-10-13T04:55:02.994Z,8.20
2022-10-13T04:57:30.615Z,8.48
2022-10-13T04:59:57.938Z,8.63
2022-10-13T05:02:25.234Z,8.95
2022-10-13T05:04:52.885Z,9.63
2022-10-13T05:07:20.133Z,10.57
2022-10-13T05:09:47.527Z,11.48
2022-10-13T05:12:14.792Z,10.65
2022-10-13T05:14:42.036Z,8.77
2022-10-13T05:17:09.270Z,9.00
2022-10-13T05:19:37.386Z,9.45
2022-10-13T05:22:04.627Z,9.82
2022-10-13T05:24:36.780Z,9.45
2022-10-13T05:27:05.065Z,8.98
2022-10-13T05:29:32.453Z,9.73
2022-10-13T05:31:59.738Z,9.30
2022-10-13T05:34:27.129Z,10.93
2022-10-13T05:36:54.503Z,10.45
2022-10-13T05:39:21.870Z,11.25
2022-10-13T05:41:49.118Z,9.98
2022-10-13T05:44:17.556Z,10.70
2022-10-13T05:46:45.166Z,10.95
2022-10-13T05:49:12.542Z,10.90
2022-10-13T05:51:44.512Z,11.70
2022-10-13T05:54:11.754Z,12.00
2022-10-13T05:56:43.741Z,12.52
2022-10-13T05:59:14.040Z,12.10
2022-10-13T06:01:41.829Z,11.75
2022-10-13T06:04:14.033Z,13.18
2022-10-13T06:06:41.369Z,12.15
2022-10-13T06:09:09.130Z,12.57
2022-10-13T06:11:36.405Z,12.68
2022-10-13T06:14:03.734Z,11.70
2022-10-13T06:16:30.957Z,12.63
2022-10-13T06:18:58.201Z,12.27
2022-10-13T06:21:25.478Z,12.55
2022-10-13T06:23:52.682Z,13.15
2022-10-13T06:26:20.078Z,11.95
2022-10-13T06:28:50.479Z,13.15
2022-10-13T06:31:19.024Z,13.55
2022-10-13T06:33:46.280Z,13.85
2022-10-13T06:36:13.671Z,15.48
2022-10-13T06:38:40.923Z,18.40
2022-10-13T06:41:08.304Z,20.45
2022-10-13T06:43:40.157Z,21.58
2022-10-13T06:46:08.364Z,21.60
2022-10-13T06:48:35.649Z,19.25
2022-10-13T06:51:10.384Z,19.55
2022-10-13T06:53:37.777Z,19.88
2022-10-13T06:56:06.127Z,19.52
2022-10-13T06:58:33.464Z,18.42
2022-10-13T07:01:00.812Z,16.45
2022-10-13T07:03:28.160Z,15.02
2022-10-13T07:05:55.566Z,14.15
2022-10-13T07:08:24.803Z,13.65
2022-10-13T07:10:52.310Z,12.27
2022-10-13T07:13:19.585Z,12.65
2022-10-13T07:15:46.891Z,11.48
2022-10-13T07:18:14.147Z,11.02
2022-10-13T07:20:41.464Z,11.52
2022-10-13T07:23:08.984Z,11.82
2022-10-13T07:25:36.278Z,11.57
2022-10-13T07:28:03.614Z,12.73
2022-10-13T07:30:30.853Z,12.75
2022-10-13T07:32:58.153Z,11.80
2022-10-13T07:35:30.463Z,12.52
2022-10-13T07:37:58.080Z,23.27
2022-10-13T07:40:25.410Z,12.05
2022-10-13T07:42:52.647Z,12.52
2022-10-13T07:45:20.197Z,12.70
2022-10-13T07:47:47.482Z,13.32
2022-10-13T07:50:15.124Z,11.93
2022-10-13T07:52:42.647Z,13.25
2022-10-13T07:55:10.207Z,13.18
2022-10-13T07:57:37.499Z,12.38
2022-10-13T08:00:09.825Z,11.40
2022-10-13T08:02:37.073Z,12.65
2022-10-13T08:05:05.469Z,13.50
2022-10-13T08:07:32.763Z,12.45
2022-10-13T08:10:00.014Z,11.57
2022-10-13T08:12:27.276Z,11.48
2022-10-13T08:14:54.512Z,10.57
2022-10-13T08:17:22.141Z,10.75
2022-10-13T08:19:51.831Z,12.20
2022-10-13T08:22:19.281Z,13.07
2022-10-13T08:24:46.516Z,15.90
2022-10-13T08:27:17.360Z,17.63
2022-10-13T08:29:47.104Z,13.98
2022-10-13T08:32:14.363Z,15.27
2022-10-13T08:34:41.626Z,11.70
2022-10-13T08:37:15.754Z,12.73
2022-10-13T08:39:43.086Z,14.35
2022-10-13T08:42:18.661Z,13.38
2022-10-13T08:47:52.574Z,15.40
2022-10-13T08:50:21.348Z,12.18
2022-10-13T08:52:50.823Z,11.90
2022-10-13T08:55:23.550Z,12.20
2022-10-13T08:57:50.866Z,12.75
2022-10-13T09:00:18.462Z,12.88
2022-10-13T09:02:45.922Z,12.50
2022-10-13T09:05:17.143Z,10.80
2022-10-13T09:10:12.249Z,10.57
2022-10-13T09:12:39.499Z,10.63
2022-10-13T09:15:11.801Z,10.50
2022-10-13T09:17:40.687Z,10.70
2022-10-13T09:20:17.016Z,11.57
2022-10-13T09:22:45.311Z,10.70
2022-10-13T09:25:22.418Z,10.68
2022-10-13T09:27:51.536Z,11.23
2022-10-13T09:30:26.297Z,10.80
2022-10-13T09:33:07.312Z,11.23
2022-10-13T09:35:35.172Z,10.73
2022-10-13T09:38:03.752Z,10.63
2022-10-13T09:40:32.401Z,10.30
2022-10-13T09:43:01.002Z,11.18
2022-10-13T09:45:31.067Z,11.38
2022-10-13T09:47:59.814Z,11.07
2022-10-13T09:50:28.486Z,13.68
2022-10-13T09:53:10.104Z,10.88
2022-10-13T09:55:37.616Z,10.30
2022-10-13T09:58:15.339Z,10.40
2022-10-13T10:00:42.827Z,9.25
2022-10-13T10:03:28.191Z,9.75
2022-10-13T10:05:56.277Z,9.65
2022-10-13T10:09:03.251Z,8.63
2022-10-13T10:11:40.308Z,9.43
2022-10-13T10:14:26.411Z,10.13
2022-10-13T10:16:59.649Z,8.88
2022-10-13T10:19:49.068Z,8.52
2022-10-13T10:22:16.298Z,9.65
2022-10-13T10:24:49.381Z,10.65
2022-10-13T10:27:21.869Z,10.25
2022-10-13T10:29:56.277Z,9.02
2022-10-13T10:32:35.650Z,8.95
2022-10-13T10:35:21.034Z,8.98
2022-10-13T10:38:14.392Z,8.90
2022-10-13T10:40:50.701Z,9.27
2022-10-13T10:43:20.752Z,8.73
2022-10-13T10:45:48.799Z,9.75
2022-10-13T10:48:16.009Z,10.90
2022-10-13T10:50:43.282Z,10.35
2022-10-13T10:53:16.351Z,10.15
2022-10-13T10:55:59.356Z,10.48
2022-10-13T10:58:38.843Z,10.05
2022-10-13T11:01:12.247Z,9.82
2022-10-13T11:03:39.554Z,8.32
2022-10-13T11:06:22.838Z,9.32
2022-10-13T11:08:50.626Z,9.77
2022-10-13T11:11:26.564Z,10.75
2022-10-13T11:13:55.304Z,8.65
2022-10-13T11:16:40.838Z,9.00
2022-10-13T11:19:26.585Z,8.25
2022-10-13T11:21:53.791Z,8.65
2022-10-13T11:24:39.464Z,8.38
2022-10-13T11:27:12.530Z,7.75
2022-10-13T11:29:46.722Z,8.23
2022-10-13T11:32:26.254Z,7.75
2022-10-13T11:35:03.301Z,8.35
2022-10-13T11:37:55.672Z,9.40
2022-10-13T11:40:46.531Z,7.90
2022-10-13T11:43:16.645Z,7.82
2022-10-13T11:46:02.656Z,7.93
2022-10-13T11:48:29.858Z,7.43
2022-10-13T11:51:16.644Z,6.53
2022-10-13T11:53:50.123Z,6.10
2022-10-13T11:56:22.551Z,5.97
2022-10-13T11:58:50.097Z,6.05
2022-10-13T12:01:20.147Z,6.68
2022-10-13T12:03:48.480Z,5.90
2022-10-13T12:06:21.542Z,5.53
2022-10-13T12:08:49.550Z,4.47
2022-10-13T12:11:27.115Z,4.28
2022-10-13T12:13:54.723Z,4.53
2022-10-13T12:16:22.321Z,4.90
2022-10-13T12:18:49.690Z,4.47
2022-10-13T12:21:20.053Z,4.60
2022-10-13T12:23:48.061Z,5.63
2022-10-13T12:26:26.075Z,5.10
2022-10-13T12:28:55.710Z,4.97
2022-10-13T12:31:25.205Z,5.47
2022-10-13T12:34:01.988Z,4.72
2022-10-13T12:36:30.513Z,4.97
2022-10-13T12:39:00.970Z,5.15
2022-10-13T12:41:30.024Z,5.88
2022-10-13T12:43:59.968Z,5.25
2022-10-13T12:46:59.114Z,5.88
2022-10-13T12:49:27.696Z,5.47
2022-10-13T12:51:57.354Z,5.10
2022-10-13T12:54:29.738Z,5.53
2022-10-13T12:56:58.407Z,5.88
2022-10-13T12:59:26.863Z,5.93
2022-10-13T13:01:55.565Z,6.55
2022-10-13T13:04:22.789Z,5.88
2022-10-13T13:06:57.667Z,5.95
2022-10-13T13:09:27.422Z,9.27
2022-10-13T13:12:19.058Z,5.20
2022-10-13T13:14:49.433Z,5.03
2022-10-13T13:17:38.441Z,5.18
2022-10-13T13:20:20.250Z,6.30
2022-10-13T13:22:47.736Z,6.05
2022-10-13T13:25:15.859Z,6.47
2022-10-13T13:27:43.208Z,5.88
2022-10-13T13:30:12.374Z,6.78
2022-10-13T13:32:39.664Z,8.80
2022-10-13T13:35:07.043Z,8.65
2022-10-13T13:37:36.240Z,8.90
2022-10-13T13:40:03.983Z,10.32
2022-10-13T13:42:31.353Z,11.50
2022-10-13T13:44:58.647Z,11.00
2022-10-13T13:47:27.158Z,11.25
2022-10-13T13:49:57.791Z,10.07
2022-10-13T13:52:26.874Z,9.05
2022-10-13T13:54:56.170Z,9.20
2022-10-13T13:57:23.683Z,9.00
2022-10-13T13:59:51.774Z,10.98
2022-10-13T14:02:20.550Z,11.32
2022-10-13T14:04:47.967Z,10.23
2022-10-13T14:07:15.478Z,10.30
2022-10-13T14:09:42.745Z,10.68
2022-10-13T14:12:10.009Z,10.68
2022-10-13T14:14:37.257Z,9.38
2022-10-13T14:17:05.028Z,9.88
2022-10-13T14:19:33.039Z,8.57
2022-10-13T14:22:03.702Z,9.30
2022-10-13T14:24:34.396Z,9.85
2022-10-13T14:27:08.920Z,9.13
2022-10-13T14:29:37.057Z,8.57
2022-10-13T14:32:04.501Z,9.23
2022-10-13T14:34:33.319Z,8.45
2022-10-13T14:37:00.712Z,8.85
2022-10-13T14:39:27.990Z,9.40
2022-10-13T14:41:55.403Z,9.40
2022-10-13T14:44:25.078Z,9.82
2022-10-13T14:46:52.640Z,9.60
2022-10-13T14:49:19.895Z,8.55
2022-10-13T14:51:47.134Z,7.90
2022-10-13T14:54:16.853Z,7.93
2022-10-13T14:56:44.925Z,8.43
2022-10-13T14:59:12.514Z,9.07
2022-10-13T15:01:41.651Z,7.88
2022-10-13T15:04:08.951Z,7.70
2022-10-13T15:06:37.514Z,8.25
2022-10-13T15:09:04.889Z,7.95
2022-10-13T15:11:34.795Z,9.55
2022-10-13T15:14:04.694Z,8.75
2022-10-13T15:16:37.037Z,11.57
2022-10-13T15:19:04.574Z,10.88
2022-10-13T15:21:31.839Z,10.25
2022-10-13T15:23:59.109Z,10.63
2022-10-13T15:26:26.353Z,9.90
2022-10-13T15:28:54.180Z,10.27
2022-10-13T15:31:23.130Z,10.88
2022-10-13T15:33:51.859Z,9.68
2022-10-13T15:36:19.832Z,10.40
2022-10-13T15:38:47.205Z,10.77
2022-10-13T15:41:14.498Z,11.48
2022-10-13T15:43:41.755Z,11.55
2022-10-13T15:46:11.541Z,12.07
2022-10-13T15:48:39.619Z,12.60
2022-10-13T15:51:12.783Z,12.32
2022-10-13T15:53:40.037Z,12.30
2022-10-13T15:56:07.778Z,11.95
2022-10-13T15:58:37.783Z,12.38
2022-10-13T16:01:09.055Z,12.02
2022-10-13T16:03:36.543Z,11.27
2022-10-13T16:06:05.222Z,11.13
2022-10-13T16:08:32.603Z,11.52
2022-10-13T16:10:59.881Z,10.82
2022-10-13T16:13:27.164Z,10.60
2022-10-13T16:15:58.142Z,11.70
2022-10-13T16:18:29.095Z,11.15
2022-10-13T16:20:56.320Z,10.88
2022-10-13T16:23:23.640Z,11.00
2022-10-13T16:25:51.032Z,10.60
2022-10-13T16:28:18.388Z,10.75
2022-10-13T16:30:45.741Z,11.35
2022-10-13T16:33:13.142Z,10.40
2022-10-13T16:35:40.373Z,11.65
2022-10-13T16:38:07.639Z,10.38
2022-10-13T16:40:34.993Z,11.05
2022-10-13T16:43:02.235Z,11.57
2022-10-13T16:45:48.021Z,11.00
2022-10-13T16:48:16.739Z,11.98
2022-10-13T16:50:44.033Z,11.80
2022-10-13T16:53:11.320Z,11.13
2022-10-13T16:55:40.281Z,11.32
2022-10-13T16:58:07.646Z,11.95
2022-10-13T17:00:36.152Z,10.80
2022-10-13T17:03:03.592Z,10.80
2022-10-13T17:05:30.958Z,12.93
2022-10-13T17:07:58.386Z,10.77
2022-10-13T17:10:26.158Z,10.18
2022-10-13T17:12:53.467Z,11.05
2022-10-13T17:15:20.841Z,10.90
2022-10-13T17:17:48.450Z,11.10
2022-10-13T17:20:15.770Z,11.40
2022-10-13T17:22:43.071Z,11.20
2022-10-13T17:25:10.395Z,11.13
2022-10-13T17:27:38.265Z,10.90
2022-10-13T17:30:05.837Z,10.68
2022-10-13T17:32:37.298Z,11.10
2022-10-13T17:35:04.900Z,11.23
2022-10-13T17:37:32.673Z,10.90
2022-10-13T17:39:59.982Z,11.40
2022-10-13T17:42:29.681Z,10.50
2022-10-13T17:44:56.965Z,10.98
2022-10-13T17:47:24.217Z,10.63
2022-10-13T17:49:51.437Z,10.57
2022-10-13T17:52:18.690Z,10.63
2022-10-13T17:54:48.170Z,11.57
2022-10-13T17:57:15.406Z,11.35
2022-10-13T17:59:42.644Z,11.27
2022-10-13T18:02:19.250Z,11.10
2022-10-13T18:04:46.597Z,11.00
2022-10-13T18:07:13.836Z,11.73
2022-10-13T18:09:41.183Z,11.27
2022-10-13T18:12:08.566Z,11.15
2022-10-13T18:14:35.883Z,11.50
2022-10-13T18:17:03.215Z,11.25
2022-10-13T18:19:30.502Z,11.27
2022-10-13T18:21:57.823Z,11.25
2022-10-13T18:24:25.247Z,11.05
2022-10-13T18:26:52.551Z,11.20
2022-10-13T18:29:20.300Z,11.35
2022-10-13T18:31:47.610Z,11.43
2022-10-13T18:34:17.066Z,11.13
2022-10-13T18:36:48.648Z,11.15
2022-10-13T18:39:19.558Z,10.93
2022-10-13T18:41:48.302Z,30.38
2022-10-13T18:44:15.742Z,17.45
2022-10-13T18:46:45.907Z,19.38
2022-10-13T18:49:14.083Z,11.55
2022-10-13T18:51:41.982Z,11.90
2022-10-13T18:54:09.370Z,13.13
2022-10-13T18:56:37.071Z,11.93
2022-10-13T18:59:04.980Z,11.68
2022-10-13T19:01:34.126Z,11.93
2022-10-13T19:04:01.482Z,21.02
2022-10-13T19:06:30.502Z,12.02
2022-10-13T19:09:00.792Z,12.48
2022-10-13T19:11:28.966Z,12.15
2022-10-13T19:13:56.635Z,12.93
2022-10-13T19:16:25.015Z,12.20
2022-10-13T19:18:52.650Z,12.07
2022-10-13T19:21:20.610Z,12.85
2022-10-13T19:23:48.156Z,11.95
2022-10-13T19:26:16.826Z,12.43
2022-10-13T19:28:44.778Z,12.52
2022-10-13T19:31:13.849Z,12.38
2022-10-13T19:33:44.759Z,12.25
2022-10-13T19:38:39.470Z,12.25
2022-10-13T19:41:07.789Z,12.63
2022-10-13T19:43:35.381Z,13.57
2022-10-13T19:46:02.717Z,13.43
2022-10-13T19:48:30.039Z,13.65
2022-10-13T19:50:57.304Z,14.02
2022-10-13T19:53:24.577Z,13.98
2022-10-13T19:55:51.887Z,13.35
2022-10-13T19:58:19.247Z,13.45
2022-10-13T20:00:47.188Z,13.90
2022-10-13T20:03:15.087Z,13.77
2022-10-13T20:05:42.424Z,14.27
2022-10-13T20:08:10.690Z,13.80
2022-10-13T20:10:39.239Z,14.38
2022-10-13T20:13:07.293Z,14.65
2022-10-13T20:15:34.663Z,14.35
2022-10-13T20:18:01.928Z,13.88
2022-10-13T20:20:29.182Z,14.18
2022-10-13T20:22:56.437Z,15.70
2022-10-13T20:25:23.753Z,15.80
2022-10-13T20:27:51.070Z,15.45
2022-10-13T20:30:18.406Z,15.68
2022-10-13T20:32:45.693Z,14.70
2022-10-13T20:35:13.044Z,15.15
2022-10-13T20:37:40.313Z,15.82
2022-10-13T20:40:07.821Z,14.10
2022-10-13T20:42:35.067Z,15.40
2022-10-13T20:45:02.323Z,14.90
2022-10-13T20:47:29.556Z,15.45
2022-10-13T20:49:56.876Z,14.85
2022-10-13T20:52:24.286Z,14.95
2022-10-13T20:54:51.556Z,14.10
2022-10-13T20:57:19.114Z,15.27
2022-10-13T20:59:46.742Z,14.70
2022-10-13T21:02:14.234Z,14.25
2022-10-13T21:04:41.509Z,14.18
2022-10-13T21:07:08.817Z,14.25
2022-10-13T21:09:36.513Z,14.50
2022-10-13T21:12:03.904Z,14.25
2022-10-13T21:14:31.225Z,13.75
2022-10-13T21:16:58.483Z,14.05
2022-10-13T21:19:26.266Z,14.85
2022-10-13T21:21:53.554Z,14.07
2022-10-13T21:24:20.817Z,13.93
2022-10-13T21:26:48.113Z,14.07
2022-10-13T21:29:15.387Z,13.63
2022-10-13T21:31:42.757Z,14.35
2022-10-13T21:34:10.973Z,13.73
2022-10-13T21:36:42.396Z,13.88
2022-10-13T21:39:10.303Z,13.70
2022-10-13T21:41:37.724Z,13.50
2022-10-13T21:44:05.001Z,13.98
2022-10-13T21:46:33.212Z,13.63
2022-10-13T21:49:01.704Z,13.57
2022-10-13T21:51:36.525Z,14.23
2022-10-13T21:54:08.314Z,14.07
2022-10-13T21:56:35.836Z,14.35
2022-10-13T21:59:05.980Z,13.15
2022-10-13T22:01:33.308Z,12.60
2022-10-13T22:04:01.410Z,12.38
2022-10-13T22:06:29.391Z,12.07
2022-10-13T22:08:57.578Z,13.43
2022-10-13T22:11:25.802Z,12.48
2022-10-13T22:13:53.125Z,12.35
2022-10-13T22:16:24.286Z,12.40
2022-10-13T22:21:20.326Z,11.88
2022-10-13T22:23:48.179Z,11.23
2022-10-13T22:26:16.970Z,11.73
2022-10-13T22:28:44.374Z,13.00
2022-10-13T22:31:13.181Z,11.65
2022-10-13T22:33:41.089Z,11.43
2022-10-13T22:36:09.350Z,11.65
2022-10-13T22:38:39.748Z,10.65
2022-10-13T22:41:07.657Z,10.95
2022-10-13T22:43:35.096Z,11.25
2022-10-13T22:46:02.418Z,11.27
2022-10-13T22:48:29.749Z,11.43
2022-10-13T22:50:57.371Z,10.75
2022-10-13T22:53:24.693Z,13.00
2022-10-13T22:55:51.957Z,11.35
2022-10-13T22:58:19.194Z,10.30
2022-10-13T23:00:46.446Z,10.98
2022-10-13T23:03:14.965Z,10.95
2022-10-13T23:05:42.923Z,10.82
2022-10-13T23:08:11.262Z,11.55
2022-10-13T23:10:38.504Z,10.27
2022-10-13T23:13:06.067Z,10.65
2022-10-13T23:15:33.322Z,10.98
2022-10-13T23:18:00.572Z,10.27
2022-10-13T23:20:27.837Z,9.98
2022-10-13T23:22:55.174Z,9.43
2022-10-13T23:25:22.491Z,9.15
2022-10-13T23:27:49.721Z,10.13
2022-10-13T23:30:17.067Z,9.30
2022-10-13T23:32:44.328Z,9.32
2022-10-13T23:35:11.778Z,8.60
2022-10-13T23:37:39.031Z,8.85
2022-10-13T23:40:06.517Z,8.45
2022-10-13T23:42:33.756Z,8.55
2022-10-13T23:45:01.048Z,8.07
2022-10-13T23:47:28.298Z,8.00
2022-10-13T23:49:55.539Z,7.97
2022-10-13T23:52:22.795Z,8.43
2022-10-13T23:54:50.053Z,7.45
2022-10-13T23:57:17.298Z,7.75
2022-10-13T23:59:44.554Z,7.05
